フェニックス の空港の天気 - METARとTAF

フェニックス・スカイハーバー国際空港 ( KPHX / PHX ) - アメリカ アリゾナ州フェニックス
飛行場実況気象(Metar)
観測時間05/25 15:51 MST (05/25 22:51 UTC)
風向・風速南南東 3m/s
視程10km以上
天気現象
少しの雲 雲底高度 7620m
気温36.1℃
湿度7%
気圧1004.9hPa
METARKPHX 252251Z 16006KT 10SM FEW250 36/M05 A2973 RMK AO2 SLP049 T03611050
過去の天気等 Google飛行場航空写真 Wunderground天気予報

過去48時間のMETAR

飛行場予報(TAF)
発表時間: 5/25 16:20 MST (5/25 23:20 UTC)
予報対象時間: 25日17時 MST ~ 26日23時 MST
風向・風速西南西 4m/s
視程10km以上
なし
25日23時 MST から
風向・風速東 3m/s
視程10km以上
なし
26日13時 MST から
風向・風速西 4m/s
視程10km以上
なし
KPHX 252320Z 2600/2706 25008KT P6SM SKC
FM260600 10005KT P6SM SKC
FM262000 27007KT P6SM SKC